Time;durP1;ratioP1;P1;durP2;ratioP2;P2;SDS_P1;SDS_P2;PMS_P1;PMS_P2;Temp;Humidity;BMP_temperature;BMP_pressure;BME280_temperature;BME280_humidity;BME280_pressure;Samples;Min_cycle;Max_cycle;Signal;HPM_P1;HPM_P2
2021/01/23 04:09:26;;;;;;;7.13;6.43;;;6.50;99.90;;;;;;5196823;23;20720;-65
2021/01/23 04:11:52;;;;;;;7.63;6.93;;;6.60;99.90;;;;;;5035030;28;20188;-67
2021/01/23 04:14:18;;;;;;;8.27;7.43;;;6.50;99.90;;;;;;5037479;28;20199;-67
2021/01/23 04:16:48;;;;;;;9.05;7.63;;;6.50;99.90;;;;;;5031813;28;20585;-67
2021/01/23 04:19:15;;;;;;;9.57;8.68;;;6.40;99.90;;;;;;5031961;28;20577;-65
2021/01/23 04:21:42;;;;;;;10.80;9.70;;;6.40;99.90;;;;;;5031782;28;20697;-67
2021/01/23 04:24:08;;;;;;;10.15;9.15;;;6.40;99.90;;;;;;5031555;28;20601;-67
2021/01/23 04:26:35;;;;;;;11.13;9.38;;;6.30;99.90;;;;;;5032977;28;20180;-67
2021/01/23 04:29:01;;;;;;;10.90;9.80;;;6.20;99.90;;;;;;5032879;28;20188;-67
2021/01/23 04:31:26;;;;;;;12.02;10.40;;;6.20;99.90;;;;;;5032798;28;20575;-67
2021/01/23 04:33:52;;;;;;;12.85;11.50;;;6.10;99.90;;;;;;5033014;28;20196;-67
2021/01/23 04:36:18;;;;;;;11.55;10.15;;;6.10;99.90;;;;;;5032555;28;20217;-66
2021/01/23 04:38:43;;;;;;;12.05;10.85;;;6.00;99.90;;;;;;5032199;28;20196;-66
2021/01/23 04:41:09;;;;;;;15.20;11.07;;;6.00;99.90;;;;;;5032873;28;20176;-66
2021/01/23 04:43:35;;;;;;;12.30;11.07;;;6.00;99.90;;;;;;5032425;28;20199;-72
2021/01/23 04:46:00;;;;;;;11.60;10.40;;;6.00;99.90;;;;;;5032819;28;20692;-72
2021/01/23 04:48:27;;;;;;;14.15;11.80;;;5.90;99.90;;;;;;5032407;28;20203;-70
2021/01/23 04:50:52;;;;;;;12.32;11.07;;;5.90;99.90;;;;;;5031458;28;20184;-72
2021/01/23 04:53:18;;;;;;;13.65;12.25;;;5.90;99.90;;;;;;5032116;28;20675;-67
2021/01/23 04:55:44;;;;;;;12.98;11.65;;;5.90;99.90;;;;;;5032442;28;20736;-66
2021/01/23 04:58:10;;;;;;;15.05;13.43;;;5.90;99.90;;;;;;5014364;28;20196;-67
2021/01/23 05:00:36;;;;;;;14.38;12.90;;;6.20;99.90;;;;;;5032482;28;20191;-67
2021/01/23 05:03:03;;;;;;;13.30;12.02;;;5.80;99.90;;;;;;5032392;28;20667;-66
2021/01/23 05:05:29;;;;;;;14.80;13.35;;;5.80;99.90;;;;;;5032265;28;20681;-67
2021/01/23 05:08:06;;;;;;;13.85;12.52;;;5.90;99.90;;;;;;5031609;28;20216;-66
2021/01/23 05:10:33;;;;;;;14.25;12.85;;;5.80;99.90;;;;;;5032283;28;20176;-67
2021/01/23 05:12:59;;;;;;;14.10;12.60;;;5.80;99.90;;;;;;5014474;28;20200;-67
2021/01/23 05:15:26;;;;;;;15.30;13.80;;;5.80;99.90;;;;;;5031804;28;20204;-67
2021/01/23 05:17:55;;;;;;;14.55;13.15;;;5.80;99.90;;;;;;5032435;28;20371;-67
2021/01/23 05:20:36;;;;;;;14.30;12.80;;;5.80;99.90;;;;;;5031036;28;20180;-67
2021/01/23 05:23:10;;;;;;;15.20;13.60;;;5.80;99.90;;;;;;5031760;28;20208;-67
2021/01/23 05:25:37;;;;;;;15.13;13.65;;;5.80;99.90;;;;;;5031256;28;20171;-66
2021/01/23 05:28:05;;;;;;;14.50;12.13;;;5.90;99.90;;;;;;5031415;28;20529;-66
2021/01/23 05:30:42;;;;;;;13.88;12.50;;;5.70;99.90;;;;;;5031925;28;20180;-66
2021/01/23 05:33:15;;;;;;;12.35;11.05;;;5.70;99.90;;;;;;5036639;28;20196;-67
2021/01/23 05:35:42;;;;;;;12.27;11.15;;;5.70;99.90;;;;;;5025357;28;20211;-66
2021/01/23 05:38:26;;;;;;;11.15;10.15;;;5.70;99.90;;;;;;5050163;28;20603;-66
2021/01/23 05:40:55;;;;;;;10.90;9.00;;;5.60;99.90;;;;;;5047899;28;20179;-67
2021/01/23 05:43:42;;;;;;;7.28;6.60;;;5.60;99.90;;;;;;5033785;28;20203;-67
2021/01/23 05:46:14;;;;;;;6.05;5.47;;;5.60;99.90;;;;;;5051694;28;20168;-67
2021/01/23 05:48:49;;;;;;;4.75;4.30;;;5.50;99.90;;;;;;5051807;28;20600;-66
2021/01/23 05:51:17;;;;;;;4.18;3.78;;;;;;;;;;5033735;28;20266;-66
2021/01/23 05:53:44;;;;;;;3.58;3.28;;;5.40;99.90;;;;;;5051364;28;20192;-66
2021/01/23 05:56:10;;;;;;;2.67;2.47;;;5.40;99.90;;;;;;5051543;28;20208;-66
2021/01/23 05:58:37;;;;;;;2.67;2.47;;;5.30;99.90;;;;;;5051552;28;20190;-67
2021/01/23 06:01:07;;;;;;;2.22;2.03;;;5.30;99.90;;;;;;5051454;28;20174;-66
2021/01/23 06:03:36;;;;;;;2.03;1.83;;;5.20;99.90;;;;;;5051627;28;20188;-66
2021/01/23 06:06:02;;;;;;;1.67;1.58;;;5.20;99.90;;;;;;5051664;28;20168;-66
2021/01/23 06:08:40;;;;;;;1.58;1.48;;;5.20;99.90;;;;;;5033252;28;20247;-66
2021/01/23 06:11:32;;;;;;;1.42;1.20;;;5.10;99.90;;;;;;5051247;28;20653;-66
2021/01/23 06:13:58;;;;;;;1.35;1.25;;;5.10;99.90;;;;;;5051569;28;20198;-66
2021/01/23 06:16:32;;;;;;;1.85;1.40;;;5.40;99.90;;;;;;5042172;28;20286;-66
2021/01/23 06:19:26;;;;;;;1.33;1.23;;;5.20;99.90;;;;;;5031431;28;20192;-65
2021/01/23 06:21:53;;;;;;;1.00;1.00;;;5.10;99.90;;;;;;5040519;28;20239;-67
2021/01/23 06:25:05;;;;;;;1.17;1.08;;;5.00;99.90;;;;;;5039465;28;20579;-66
2021/01/23 06:27:47;;;;;;;1.05;1.00;;;5.00;99.90;;;;;;5041676;28;20274;-67
2021/01/23 06:30:29;;;;;;;0.90;0.90;;;3.90;99.90;;;;;;5045191;28;20156;-66
2021/01/23 06:32:55;;;;;;;0.90;0.90;;;4.90;99.90;;;;;;5045412;28;20216;-66
2021/01/23 06:35:21;;;;;;;0.90;0.90;;;4.90;99.90;;;;;;5043559;28;20227;-66
2021/01/23 06:37:47;;;;;;;0.73;0.73;;;4.80;99.90;;;;;;5044625;28;20199;-65
2021/01/23 06:40:28;;;;;;;1.02;0.93;;;5.30;99.90;;;;;;5027058;28;20180;-66
2021/01/23 06:42:54;;;;;;;1.13;1.02;;;4.60;99.90;;;;;;5044868;28;20184;-66
2021/01/23 06:45:37;;;;;;;0.70;0.70;;;4.70;99.90;;;;;;5022773;28;20176;-67
2021/01/23 06:48:03;;;;;;;0.90;0.90;;;;;;;;;;5044773;28;20184;-66
2021/01/23 06:50:33;;;;;;;0.63;0.60;;;4.50;99.90;;;;;;5024981;28;20224;-67
2021/01/23 06:53:00;;;;;;;0.60;0.60;;;4.70;99.90;;;;;;5043220;28;20191;-66
2021/01/23 06:55:52;;;;;;;0.50;0.50;;;4.60;99.90;;;;;;5045161;28;20204;-66
2021/01/23 06:58:26;;;;;;;0.55;0.55;;;4.60;99.90;;;;;;5040977;28;20358;-66
2021/01/23 07:00:54;;;;;;;0.60;0.60;;;4.50;99.90;;;;;;5036834;28;20159;-66
2021/01/23 07:03:20;;;;;;;0.88;0.85;;;4.50;99.90;;;;;;5045374;28;20599;-67
2021/01/23 07:05:53;;;;;;;0.68;0.68;;;4.50;99.90;;;;;;5043461;28;20223;-67
2021/01/23 07:08:26;;;;;;;0.68;0.50;;;4.50;99.90;;;;;;5042065;28;20255;-66
2021/01/23 07:11:12;;;;;;;0.50;0.50;;;4.50;99.90;;;;;;5043785;28;20157;-67
2021/01/23 07:14:02;;;;;;;0.50;0.50;;;4.50;99.90;;;;;;5044724;28;20610;-67
2021/01/23 07:16:31;;;;;;;0.60;0.60;;;4.50;99.90;;;;;;5043539;28;20212;-67
2021/01/23 07:19:01;;;;;;;0.75;0.75;;;4.40;99.90;;;;;;5042660;28;20198;-67
2021/01/23 07:21:33;;;;;;;0.60;0.60;;;4.50;99.90;;;;;;5044472;28;20172;-67
2021/01/23 07:23:59;;;;;;;0.50;0.50;;;4.40;99.90;;;;;;5044019;28;20184;-67
2021/01/23 07:26:25;;;;;;;0.50;0.50;;;4.40;99.90;;;;;;5026962;28;20218;-66
2021/01/23 07:28:52;;;;;;;0.38;0.38;;;4.40;99.90;;;;;;5027118;28;20196;-67
2021/01/23 07:31:19;;;;;;;0.40;0.40;;;4.40;99.90;;;;;;5053659;28;20168;-67
2021/01/23 07:33:45;;;;;;;0.80;0.52;;;4.40;99.90;;;;;;5053879;28;20227;-68
2021/01/23 07:36:11;;;;;;;0.40;0.40;;;;;;;;;;5047251;28;20261;-74
2021/01/23 07:38:38;;;;;;;0.32;0.32;;;4.40;99.90;;;;;;5023027;28;20193;-76
2021/01/23 07:41:04;;;;;;;0.40;0.40;;;4.40;99.90;;;;;;5025149;28;20164;-75
2021/01/23 07:43:30;;;;;;;0.75;0.47;;;4.40;99.90;;;;;;5021015;28;20206;-76
2021/01/23 07:45:56;;;;;;;0.40;0.40;;;4.40;99.90;;;;;;5033439;28;20263;-72
2021/01/23 07:48:22;;;;;;;0.40;0.40;;;4.40;99.90;;;;;;5036057;28;20196;-72
2021/01/23 07:50:48;;;;;;;0.32;0.32;;;4.40;99.90;;;;;;5033108;28;20184;-72
2021/01/23 07:53:22;;;;;;;0.43;0.43;;;4.50;99.90;;;;;;5032355;28;20216;-72
2021/01/23 07:55:49;;;;;;;0.43;0.43;;;4.40;99.90;;;;;;5032620;28;20942;-72
2021/01/23 07:58:15;;;;;;;0.70;0.63;;;;;;;;;;5031797;28;20615;-72
2021/01/23 08:00:42;;;;;;;0.60;0.60;;;4.40;99.90;;;;;;5032605;28;20540;-69
2021/01/23 08:03:08;;;;;;;0.60;0.60;;;4.40;99.90;;;;;;5032369;28;20188;-69
2021/01/23 08:05:44;;;;;;;0.70;0.70;;;4.40;99.90;;;;;;5033041;28;20168;-68
2021/01/23 08:08:11;;;;;;;0.50;0.50;;;4.40;99.90;;;;;;5015011;28;20263;-69
2021/01/23 08:10:38;;;;;;;0.50;0.50;;;4.40;99.90;;;;;;5033303;28;20230;-68
2021/01/23 08:13:06;;;;;;;0.60;0.60;;;4.40;99.90;;;;;;5035412;28;20204;-69
2021/01/23 08:15:35;;;;;;;0.55;0.55;;;4.40;99.90;;;;;;5037060;28;20195;-68
2021/01/23 08:18:01;;;;;;;0.60;0.60;;;4.40;99.90;;;;;;5052283;28;20184;-70
2021/01/23 08:20:33;;;;;;;0.50;0.50;;;4.20;99.90;;;;;;5026563;28;20168;-69
2021/01/23 08:23:15;;;;;;;1.15;1.00;;;4.40;99.90;;;;;;5022608;28;20199;-68
2021/01/23 08:25:41;;;;;;;0.70;0.70;;;;;;;;;;5022242;28;20186;-69
2021/01/23 08:28:07;;;;;;;0.60;0.60;;;4.50;99.90;;;;;;5028134;28;20204;-68
2021/01/23 08:30:34;;;;;;;0.65;0.60;;;5.00;99.90;;;;;;5043581;28;20271;-68
2021/01/23 08:33:03;;;;;;;0.85;0.55;;;4.40;99.90;;;;;;5041102;28;20198;-70
2021/01/23 08:35:32;;;;;;;1.17;0.75;;;4.50;99.90;;;;;;5026016;28;20219;-69
2021/01/23 08:37:58;;;;;;;0.80;0.80;;;4.50;99.90;;;;;;5040988;28;20439;-70
2021/01/23 08:40:24;;;;;;;2.45;1.48;;;4.60;99.90;;;;;;5031184;28;20651;-68
2021/01/23 08:42:50;;;;;;;1.13;1.02;;;4.60;99.90;;;;;;5045415;28;20183;-68
2021/01/23 08:45:18;;;;;;;0.80;0.80;;;4.60;99.90;;;;;;5052053;28;20187;-72
2021/01/23 08:47:44;;;;;;;0.60;0.60;;;4.60;99.90;;;;;;5051923;28;20515;-70
2021/01/23 08:50:10;;;;;;;0.55;0.55;;;4.60;99.90;;;;;;5022167;28;20275;-72
2021/01/23 08:52:37;;;;;;;0.73;0.70;;;4.60;99.90;;;;;;5014406;28;20223;-71
2021/01/23 08:55:06;;;;;;;0.50;0.50;;;4.60;99.90;;;;;;5031559;28;20192;-71
2021/01/23 08:57:32;;;;;;;0.90;0.60;;;4.60;99.90;;;;;;5014397;28;20176;-68
2021/01/23 08:59:58;;;;;;;0.47;0.47;;;4.70;99.90;;;;;;5037037;28;20634;-69
2021/01/23 09:02:24;;;;;;;0.60;0.60;;;4.70;99.90;;;;;;5051289;28;20210;-70
2021/01/23 09:04:50;;;;;;;0.52;0.47;;;4.70;99.90;;;;;;5034011;28;20172;-71
2021/01/23 09:07:16;;;;;;;0.50;0.50;;;4.70;99.90;;;;;;5017747;28;20187;-70
2021/01/23 09:09:41;;;;;;;0.70;0.70;;;4.80;99.90;;;;;;5032433;28;20518;-70
2021/01/23 09:12:08;;;;;;;1.73;0.90;;;4.90;99.90;;;;;;5014149;28;20177;-70
2021/01/23 09:14:35;;;;;;;0.95;0.90;;;4.90;99.90;;;;;;5030994;28;20192;-69
2021/01/23 09:17:01;;;;;;;1.10;1.02;;;4.90;99.90;;;;;;5014231;28;20725;-70
2021/01/23 09:19:27;;;;;;;1.08;0.90;;;4.90;99.90;;;;;;5032138;28;20197;-70
2021/01/23 09:21:53;;;;;;;0.80;0.80;;;4.90;99.90;;;;;;5014205;28;20297;-70
2021/01/23 09:24:18;;;;;;;0.95;0.80;;;5.00;99.90;;;;;;5013652;28;20200;-71
2021/01/23 09:26:44;;;;;;;0.82;0.80;;;5.00;99.90;;;;;;5018794;28;20186;-70
2021/01/23 09:29:12;;;;;;;1.40;0.90;;;5.10;99.90;;;;;;5044670;28;20257;-69
2021/01/23 09:31:38;;;;;;;1.25;1.15;;;5.10;99.90;;;;;;5051547;28;20166;-70
2021/01/23 09:34:04;;;;;;;1.80;1.27;;;5.20;99.90;;;;;;5049643;28;20184;-70
2021/01/23 09:36:31;;;;;;;1.25;1.10;;;5.30;99.90;;;;;;5031668;28;20244;-69
2021/01/23 09:38:57;;;;;;;1.63;1.10;;;5.30;99.90;;;;;;5031256;28;20219;-70
2021/01/23 09:41:23;;;;;;;0.98;0.98;;;5.40;99.90;;;;;;5039138;28;20515;-67
2021/01/23 09:43:49;;;;;;;0.80;0.80;;;5.40;99.90;;;;;;5019575;28;20200;-68
2021/01/23 09:46:14;;;;;;;1.05;0.98;;;5.40;99.90;;;;;;5040176;28;20230;-67
2021/01/23 09:48:40;;;;;;;1.25;0.93;;;5.40;99.90;;;;;;5016622;28;20202;-71
2021/01/23 09:51:06;;;;;;;1.17;0.98;;;5.40;99.90;;;;;;5034215;28;20213;-70
2021/01/23 09:53:32;;;;;;;0.90;0.90;;;5.30;99.90;;;;;;5034742;28;20274;-71
2021/01/23 09:55:58;;;;;;;1.15;1.05;;;5.30;99.90;;;;;;5039502;28;20200;-71
2021/01/23 09:58:23;;;;;;;1.10;1.00;;;5.30;99.90;;;;;;5024311;28;20219;-71
2021/01/23 10:00:49;;;;;;;1.42;1.08;;;5.30;99.90;;;;;;5052746;28;20221;-70
2021/01/23 10:03:15;;;;;;;1.20;1.00;;;5.30;99.90;;;;;;5020236;28;20207;-70
2021/01/23 10:05:41;;;;;;;1.63;1.50;;;5.30;99.90;;;;;;5034591;28;20173;-71
2021/01/23 10:08:07;;;;;;;0.90;0.90;;;5.30;99.90;;;;;;5034399;28;20223;-74
2021/01/23 10:10:33;;;;;;;4.07;1.88;;;5.30;99.90;;;;;;5017074;28;20180;-73
2021/01/23 10:12:59;;;;;;;2.10;1.60;;;5.30;99.90;;;;;;5019382;28;20667;-74
2021/01/23 10:15:24;;;;;;;3.05;1.30;;;5.30;99.90;;;;;;5028758;28;20204;-73
2021/01/23 10:17:50;;;;;;;1.05;0.98;;;5.30;99.90;;;;;;5023951;28;20747;-72
2021/01/23 10:20:16;;;;;;;1.27;1.17;;;5.30;99.90;;;;;;5039893;28;20177;-72
2021/01/23 10:22:42;;;;;;;1.30;1.20;;;5.30;99.90;;;;;;5033991;28;20181;-71
2021/01/23 10:25:08;;;;;;;0.90;0.90;;;5.30;99.90;;;;;;5032046;28;20164;-73
2021/01/23 10:27:34;;;;;;;1.00;1.00;;;5.40;99.90;;;;;;5026520;28;20184;-72
2021/01/23 10:30:01;;;;;;;1.17;1.08;;;5.40;99.90;;;;;;5034458;28;20172;-72
2021/01/23 10:32:27;;;;;;;0.82;0.80;;;5.40;99.90;;;;;;5023668;28;20172;-73
2021/01/23 10:34:52;;;;;;;0.90;0.90;;;5.40;99.90;;;;;;5035000;28;20176;-71
2021/01/23 10:37:18;;;;;;;1.08;0.98;;;5.40;99.90;;;;;;5016913;28;20674;-72
2021/01/23 10:39:44;;;;;;;1.00;0.90;;;5.40;99.90;;;;;;5034460;28;20195;-71
2021/01/23 10:42:10;;;;;;;1.10;0.93;;;5.50;99.90;;;;;;5034755;28;20157;-72
2021/01/23 10:44:40;;;;;;;1.25;1.20;;;5.40;99.90;;;;;;5047655;28;20243;-73
2021/01/23 10:47:11;;;;;;;1.08;1.08;;;5.40;99.90;;;;;;5033038;28;20180;-72
2021/01/23 10:49:37;;;;;;;1.10;1.10;;;5.40;99.90;;;;;;5033728;28;20192;-71
2021/01/23 10:52:03;;;;;;;1.33;1.20;;;5.40;99.90;;;;;;5022844;28;20263;-72
2021/01/23 10:54:29;;;;;;;1.20;1.10;;;5.40;99.90;;;;;;5034380;28;20193;-71
2021/01/23 10:56:55;;;;;;;1.10;1.00;;;5.50;99.90;;;;;;5027695;28;20242;-70
2021/01/23 10:59:21;;;;;;;1.10;1.10;;;5.50;99.90;;;;;;5043267;28;20188;-72
2021/01/23 11:01:48;;;;;;;1.40;1.30;;;5.50;99.90;;;;;;5041672;28;20175;-71
2021/01/23 11:04:14;;;;;;;1.20;1.08;;;5.50;99.90;;;;;;5027148;28;20184;-71
2021/01/23 11:06:40;;;;;;;1.30;1.20;;;5.50;99.90;;;;;;5042924;28;20219;-70
2021/01/23 11:09:06;;;;;;;1.20;1.10;;;5.50;99.90;;;;;;5025430;28;20222;-71
2021/01/23 11:11:32;;;;;;;1.05;1.05;;;5.50;99.90;;;;;;5041318;28;20714;-72
2021/01/23 11:13:58;;;;;;;1.05;1.02;;;5.50;99.90;;;;;;5016497;28;20200;-71
2021/01/23 11:16:24;;;;;;;1.00;1.00;;;5.50;99.90;;;;;;5033771;28;20193;-73
2021/01/23 11:18:50;;;;;;;1.23;1.13;;;5.50;99.90;;;;;;5034266;28;20246;-73
2021/01/23 11:21:15;;;;;;;1.00;1.00;;;5.50;99.90;;;;;;5016459;28;20177;-71
2021/01/23 11:23:41;;;;;;;1.20;1.10;;;5.50;99.90;;;;;;5023229;28;20203;-75
2021/01/23 11:26:07;;;;;;;1.02;1.02;;;5.40;99.90;;;;;;5023912;28;20176;-73
2021/01/23 11:28:32;;;;;;;1.17;1.17;;;5.40;99.90;;;;;;5045325;28;20206;-71
2021/01/23 11:30:58;;;;;;;1.40;1.30;;;5.40;99.90;;;;;;5042489;28;20168;-71
2021/01/23 11:33:24;;;;;;;1.10;1.10;;;5.40;99.90;;;;;;5044508;28;20255;-73
2021/01/23 11:35:50;;;;;;;1.33;1.23;;;5.40;99.90;;;;;;5041668;28;20283;-71
2021/01/23 11:38:16;;;;;;;1.42;1.33;;;5.50;99.90;;;;;;5020279;28;20197;-70
2021/01/23 11:40:42;;;;;;;1.20;1.20;;;5.50;99.90;;;;;;5025503;28;20270;-72
2021/01/23 11:43:09;;;;;;;1.20;1.10;;;5.50;99.90;;;;;;5043032;28;20226;-73
2021/01/23 11:45:35;;;;;;;1.48;1.38;;;5.50;99.90;;;;;;5023862;28;20275;-71
2021/01/23 11:48:01;;;;;;;1.30;1.20;;;5.50;99.90;;;;;;5047264;28;20278;-72
2021/01/23 11:50:26;;;;;;;1.50;1.40;;;5.50;99.90;;;;;;5045875;28;20630;-69
2021/01/23 11:52:52;;;;;;;1.30;1.20;;;5.50;99.90;;;;;;5052445;28;20249;-69
2021/01/23 11:55:18;;;;;;;1.70;1.38;;;5.50;99.90;;;;;;5053259;28;20206;-69
2021/01/23 11:57:43;;;;;;;1.40;1.30;;;5.50;99.90;;;;;;5053308;28;20200;-68
2021/01/23 12:00:10;;;;;;;1.40;1.30;;;5.50;99.90;;;;;;5052176;28;20206;-69
2021/01/23 12:02:35;;;;;;;1.40;1.30;;;5.50;99.90;;;;;;5053214;28;20169;-68
2021/01/23 12:05:01;;;;;;;1.50;1.40;;;5.50;99.90;;;;;;5035294;28;20211;-67
2021/01/23 12:07:27;;;;;;;1.60;1.50;;;5.50;99.90;;;;;;5052569;28;20537;-67
2021/01/23 12:09:52;;;;;;;1.42;1.33;;;5.50;99.90;;;;;;5044455;28;20231;-68
2021/01/23 12:12:18;;;;;;;1.50;1.40;;;5.50;99.90;;;;;;5041054;28;20638;-68
2021/01/23 12:14:44;;;;;;;1.55;1.45;;;5.50;99.90;;;;;;5025199;28;20200;-68
2021/01/23 12:17:10;;;;;;;1.40;1.30;;;5.50;99.90;;;;;;5042753;28;20208;-68
2021/01/23 12:19:36;;;;;;;3.72;1.98;;;5.50;99.90;;;;;;5052799;28;20195;-69
2021/01/23 12:22:02;;;;;;;1.80;1.60;;;5.60;99.90;;;;;;5048731;28;20203;-67
2021/01/23 12:24:31;;;;;;;1.50;1.40;;;5.50;99.90;;;;;;5047119;28;20246;-67
2021/01/23 12:26:58;;;;;;;1.55;1.45;;;5.50;99.90;;;;;;5034854;28;20265;-68
2021/01/23 12:29:24;;;;;;;1.58;1.48;;;5.50;99.90;;;;;;5049159;28;20251;-66
2021/01/23 12:31:49;;;;;;;1.70;1.55;;;5.50;99.90;;;;;;5041033;28;20657;-68
2021/01/23 12:34:15;;;;;;;1.75;1.65;;;5.50;99.90;;;;;;5024930;28;20195;-66
2021/01/23 12:36:40;;;;;;;1.63;1.50;;;5.50;99.90;;;;;;5042886;28;20226;-68
2021/01/23 12:39:06;;;;;;;1.70;1.60;;;5.50;99.90;;;;;;5039820;28;20199;-66
2021/01/23 12:41:32;;;;;;;1.50;1.40;;;5.50;99.90;;;;;;5041821;28;20176;-66
2021/01/23 12:43:57;;;;;;;1.90;1.50;;;5.50;99.90;;;;;;5036750;28;20224;-67
2021/01/23 12:46:23;;;;;;;2.13;2.00;;;5.50;99.90;;;;;;5034574;28;20172;-67
2021/01/23 12:48:51;;;;;;;1.77;1.67;;;5.60;99.90;;;;;;5020782;28;20204;-66
2021/01/23 12:51:17;;;;;;;1.65;1.55;;;5.60;99.90;;;;;;5043789;28;20202;-66
2021/01/23 12:53:44;;;;;;;1.63;1.52;;;5.60;99.90;;;;;;5039400;28;20208;-66
2021/01/23 12:56:09;;;;;;;1.70;1.60;;;5.70;99.90;;;;;;5014766;28;20217;-66
2021/01/23 12:58:35;;;;;;;1.60;1.50;;;5.70;99.90;;;;;;5027743;28;20196;-65
2021/01/23 13:01:01;;;;;;;1.73;1.63;;;5.80;99.90;;;;;;5041479;28;20258;-65
2021/01/23 13:03:26;;;;;;;1.42;1.33;;;5.80;99.90;;;;;;5042043;28;20192;-65
2021/01/23 13:05:52;;;;;;;1.60;1.50;;;5.90;99.90;;;;;;5052109;28;20168;-65
2021/01/23 13:08:18;;;;;;;1.50;1.40;;;6.00;99.90;;;;;;5044591;28;20278;-66
2021/01/23 13:10:43;;;;;;;1.52;1.42;;;6.10;99.90;;;;;;5014261;28;20730;-63
2021/01/23 13:13:09;;;;;;;1.70;1.60;;;6.20;99.90;;;;;;5031861;28;20543;-65
2021/01/23 13:15:35;;;;;;;1.35;1.25;;;6.30;99.90;;;;;;5031672;28;20208;-63
2021/01/23 13:18:00;;;;;;;1.50;1.40;;;6.30;99.90;;;;;;5048434;28;20517;-65
2021/01/23 13:20:27;;;;;;;1.58;1.48;;;6.30;99.90;;;;;;5050765;28;20171;-64
2021/01/23 13:22:53;;;;;;;1.77;1.67;;;6.20;99.90;;;;;;5051011;28;20187;-65
2021/01/23 13:25:19;;;;;;;1.58;1.48;;;6.20;99.90;;;;;;5033612;28;20183;-65
2021/01/23 13:27:45;;;;;;;1.80;1.70;;;6.20;99.90;;;;;;5043009;28;20196;-68
2021/01/23 13:30:11;;;;;;;1.70;1.60;;;6.20;99.90;;;;;;5031437;28;20165;-69
2021/01/23 13:32:42;;;;;;;1.60;1.50;;;6.10;99.90;;;;;;5031790;28;20176;-68
2021/01/23 13:35:08;;;;;;;1.73;1.55;;;6.10;99.90;;;;;;5029350;28;20176;-70
2021/01/23 13:37:34;;;;;;;2.05;1.85;;;6.10;99.90;;;;;;5051190;28;20369;-69
2021/01/23 13:40:00;;;;;;;1.70;1.60;;;6.00;99.90;;;;;;5050812;28;20163;-68
2021/01/23 13:42:26;;;;;;;1.75;1.65;;;6.00;99.90;;;;;;5051203;28;20252;-67
2021/01/23 13:44:51;;;;;;;3.65;1.88;;;5.90;99.90;;;;;;5051407;28;20615;-69
2021/01/23 13:47:17;;;;;;;1.67;1.58;;;5.90;99.90;;;;;;5042181;28;20623;-68
2021/01/23 13:49:43;;;;;;;1.60;1.50;;;5.90;99.90;;;;;;5013641;28;20188;-70
2021/01/23 13:52:08;;;;;;;1.63;1.52;;;5.90;99.90;;;;;;5031433;28;20172;-70
2021/01/23 13:54:34;;;;;;;1.60;1.50;;;5.80;99.90;;;;;;5036543;28;20203;-69
2021/01/23 13:57:00;;;;;;;1.60;1.50;;;5.80;99.90;;;;;;5031907;28;20242;-69
2021/01/23 13:59:25;;;;;;;1.75;1.65;;;5.80;99.90;;;;;;5050974;28;20219;-71
2021/01/23 14:01:51;;;;;;;1.90;1.70;;;5.70;99.90;;;;;;5050912;28;20183;-69
2021/01/23 14:04:16;;;;;;;2.15;1.95;;;5.70;99.90;;;;;;5040056;28;20612;-71
2021/01/23 14:06:42;;;;;;;1.60;1.50;;;5.70;99.90;;;;;;5041830;28;20718;-70
2021/01/23 14:09:08;;;;;;;1.60;1.50;;;5.70;99.90;;;;;;5039952;28;20224;-70
2021/01/23 14:11:34;;;;;;;1.50;1.40;;;5.60;99.90;;;;;;5039375;28;20223;-69
2021/01/23 14:14:00;;;;;;;2.13;1.80;;;5.60;99.90;;;;;;5041701;28;20654;-71
2021/01/23 14:16:25;;;;;;;2.00;1.80;;;5.60;99.90;;;;;;5022863;28;20212;-70
2021/01/23 14:18:51;;;;;;;1.83;1.67;;;5.60;99.90;;;;;;5024559;28;20257;-72
2021/01/23 14:21:17;;;;;;;1.90;1.80;;;5.60;99.90;;;;;;5051297;28;20247;-71
2021/01/23 14:23:43;;;;;;;2.75;1.90;;;5.60;99.90;;;;;;5050668;28;20280;-72
2021/01/23 14:26:09;;;;;;;2.10;1.90;;;5.50;99.90;;;;;;5051376;28;20303;-71
2021/01/23 14:28:34;;;;;;;2.25;2.05;;;5.50;99.90;;;;;;5033108;28;20248;-71
2021/01/23 14:31:00;;;;;;;2.30;2.10;;;5.50;99.90;;;;;;5040084;28;20735;-69
2021/01/23 14:33:26;;;;;;;3.35;2.53;;;5.50;99.90;;;;;;5024366;28;20199;-69
2021/01/23 14:35:52;;;;;;;3.63;3.28;;;5.50;99.90;;;;;;5034476;28;20212;-71
2021/01/23 14:38:18;;;;;;;4.00;3.60;;;5.50;99.90;;;;;;5037112;28;20572;-71
2021/01/23 14:40:44;;;;;;;2.60;2.40;;;5.50;99.90;;;;;;5026916;28;20168;-69
2021/01/23 14:43:10;;;;;;;3.00;2.70;;;5.50;99.90;;;;;;5038885;28;20196;-69
2021/01/23 14:45:35;;;;;;;2.80;2.60;;;5.50;99.90;;;;;;5023349;28;20168;-67
2021/01/23 14:48:01;;;;;;;2.28;2.10;;;5.50;99.90;;;;;;5044550;28;20277;-68
2021/01/23 14:50:28;;;;;;;2.90;2.58;;;5.50;99.90;;;;;;5043759;28;20180;-70
2021/01/23 14:52:54;;;;;;;2.30;2.03;;;5.40;99.90;;;;;;5024780;28;20249;-68
2021/01/23 14:55:19;;;;;;;2.35;2.15;;;5.40;99.90;;;;;;5043510;28;20180;-69
2021/01/23 14:57:45;;;;;;;2.63;2.42;;;5.40;99.90;;;;;;5045505;28;20202;-68
2021/01/23 15:00:13;;;;;;;3.03;2.40;;;5.40;99.90;;;;;;5042491;28;20179;-69
2021/01/23 15:02:39;;;;;;;2.63;2.42;;;5.40;99.90;;;;;;5024559;28;20187;-68
2021/01/23 15:05:06;;;;;;;2.50;2.30;;;5.40;99.90;;;;;;5050358;28;20259;-69
2021/01/23 15:07:32;;;;;;;2.53;2.33;;;5.40;99.90;;;;;;5041557;28;20175;-69
2021/01/23 15:09:58;;;;;;;2.55;2.35;;;5.40;99.90;;;;;;5026876;28;20294;-68
2021/01/23 15:12:25;;;;;;;2.40;2.20;;;5.40;99.90;;;;;;5024926;28;20183;-68
2021/01/23 15:14:50;;;;;;;2.70;2.50;;;5.40;99.90;;;;;;5038234;28;20169;-68
2021/01/23 15:17:16;;;;;;;2.53;2.33;;;5.40;99.90;;;;;;5040652;28;20211;-70
2021/01/23 15:19:42;;;;;;;2.80;2.60;;;5.30;99.90;;;;;;5033711;28;20682;-69
2021/01/23 15:22:08;;;;;;;3.72;3.08;;;5.30;99.90;;;;;;5018830;28;20168;-69
2021/01/23 15:24:34;;;;;;;2.80;2.60;;;5.30;99.90;;;;;;5033504;28;20662;-69
2021/01/23 15:27:00;;;;;;;3.15;2.85;;;5.30;99.90;;;;;;5033147;28;20200;-70
2021/01/23 15:29:26;;;;;;;3.55;3.00;;;5.30;99.90;;;;;;5016075;28;20580;-70
2021/01/23 15:31:51;;;;;;;3.33;3.03;;;5.30;99.90;;;;;;5015420;28;20228;-68
2021/01/23 15:34:17;;;;;;;3.90;3.15;;;5.30;99.90;;;;;;5033889;28;20195;-69
2021/01/23 15:36:43;;;;;;;2.97;2.72;;;5.20;99.90;;;;;;5033409;28;20216;-69
2021/01/23 15:39:09;;;;;;;3.13;2.92;;;5.20;99.90;;;;;;5047394;28;20199;-72
2021/01/23 15:41:35;;;;;;;2.85;2.63;;;5.20;99.90;;;;;;5033428;28;20168;-71
2021/01/23 15:44:01;;;;;;;2.97;2.78;;;5.20;99.90;;;;;;5014931;28;20195;-70
2021/01/23 15:46:27;;;;;;;3.03;2.72;;;5.10;99.90;;;;;;5033167;28;20726;-71
2021/01/23 15:48:53;;;;;;;3.15;2.95;;;5.10;99.90;;;;;;5041305;28;20204;-70
2021/01/23 15:51:19;;;;;;;3.00;2.80;;;5.10;99.90;;;;;;5019829;28;20180;-74
2021/01/23 15:53:45;;;;;;;3.20;2.90;;;5.10;99.90;;;;;;5024109;28;20247;-73
2021/01/23 15:56:11;;;;;;;4.35;3.17;;;;;;;;;;5040291;28;20437;-75
2021/01/23 15:58:36;;;;;;;3.08;2.80;;;5.10;99.90;;;;;;5027107;28;20226;-75
2021/01/23 16:01:03;;;;;;;3.20;2.90;;;5.10;99.90;;;;;;5048300;28;20250;-74
2021/01/23 16:03:29;;;;;;;2.95;2.75;;;5.10;99.90;;;;;;5041841;28;20200;-73
2021/01/23 16:05:54;;;;;;;3.63;3.28;;;5.10;99.90;;;;;;5044501;28;20230;-72
2021/01/23 16:08:21;;;;;;;3.50;3.20;;;5.10;99.90;;;;;;5039663;28;20255;-74
2021/01/23 16:10:47;;;;;;;3.53;3.22;;;5.10;99.90;;;;;;5033093;28;20505;-72
2021/01/23 16:13:13;;;;;;;3.67;3.35;;;5.00;99.90;;;;;;5032395;28;20223;-74
2021/01/23 16:15:38;;;;;;;3.70;3.25;;;5.00;99.90;;;;;;5033090;28;20208;-72
2021/01/23 16:18:09;;;;;;;3.53;3.17;;;5.00;99.90;;;;;;5033414;28;20196;-73
2021/01/23 16:20:35;;;;;;;4.35;3.95;;;5.00;99.90;;;;;;5032909;28;20710;-74
2021/01/23 16:23:03;;;;;;;5.05;4.55;;;4.90;99.90;;;;;;5032809;28;20196;-72
2021/01/23 16:25:30;;;;;;;5.07;4.35;;;4.90;99.90;;;;;;5032625;28;20176;-70
2021/01/23 16:28:00;;;;;;;5.80;5.25;;;5.10;99.90;;;;;;5015035;28;20204;-72
2021/01/23 16:30:27;;;;;;;5.18;4.65;;;4.20;99.90;;;;;;5015137;28;20173;-73
2021/01/23 16:32:53;;;;;;;5.28;4.35;;;4.90;99.90;;;;;;5033086;28;20189;-71
2021/01/23 16:35:19;;;;;;;4.72;4.32;;;4.90;99.90;;;;;;5032907;28;20172;-70
2021/01/23 16:37:48;;;;;;;5.20;4.70;;;4.90;99.90;;;;;;5033000;28;20720;-69
2021/01/23 16:40:14;;;;;;;4.88;4.30;;;4.90;99.90;;;;;;5023327;28;20185;-70
2021/01/23 16:42:47;;;;;;;4.55;4.10;;;4.40;99.90;;;;;;5028004;28;20172;-70
2021/01/23 16:45:18;;;;;;;4.65;4.20;;;5.30;99.90;;;;;;5013819;28;20172;-69
2021/01/23 16:47:44;;;;;;;6.68;5.28;;;4.80;99.90;;;;;;5032126;28;20196;-68
2021/01/23 16:50:10;;;;;;;6.57;5.55;;;4.80;99.90;;;;;;5023366;28;20195;-70
2021/01/23 16:52:37;;;;;;;7.63;6.45;;;4.80;99.90;;;;;;5014697;28;20219;-70
2021/01/23 16:55:05;;;;;;;7.75;6.95;;;4.80;99.90;;;;;;5013763;28;20231;-70
2021/01/23 16:57:31;;;;;;;7.07;6.38;;;4.80;99.90;;;;;;5014409;28;20698;-70
2021/01/23 16:59:56;;;;;;;6.65;6.05;;;4.80;99.90;;;;;;5014728;28;20254;-71
2021/01/23 17:02:22;;;;;;;7.90;6.40;;;4.70;99.90;;;;;;5032394;28;20169;-71
2021/01/23 17:04:48;;;;;;;5.97;5.47;;;4.70;99.90;;;;;;5032678;28;20634;-70
2021/01/23 17:07:14;;;;;;;6.18;5.57;;;4.60;99.90;;;;;;5032326;28;20183;-71